Brandon Municipal Airport
CYBR : rendu visible

Aérodrome :











RETROUVEZ-NOUS SUR...

 
LOGIN :

S'inscrire | Disclaimer

   EN    FR    IT 

 









Légende :    VFR   VFR Marginal   IFR   IFR Intensif   IFR Très Intensif
Visi : 
Plafond : 
>= 8 km
>= 3000ft
5 à 8 km
1000 à 3000 ft
1500m à 5 km
500 à 1000 ft
800 à 1500m
200 à 500 ft
< 800m
< 200 ft
Symboles :   Orages  Brouillard  Fortes neiges  Fortes précipitations  Vent > 20 kt






- Altitude de l'aérodrome : 1343 ft
- Code IATA : YBR


CYBR - Brandon Municipal

DERNIER METAR :
  • 191500Z 28010KT 15SM OVC035 01/M01 A2975 RMK SC8 SLP095

METARs EXPIRÉS :
  • 191400Z 29010KT 15SM FEW012 OVC033 01/M01 A2973 RMK SC1SC7 SLP088
  • 191300Z 29009KT 15SM FEW012 OVC030 02/M01 A2972 RMK SC2SC6 SLP083

TAF TAF CYBR
Valide du 19 à 12h jusqu'au 20 à 00h UTC


191139Z 1912/1924 30012KT P6SM OVC030
TEMPO 1912/1924 OVC012
BECMG 1922/1924 34006KT RMK NXT FCST BY 191800Z



MET'MAP, la Météo Aéronautique d'un coup d'oeil ! - Copyright ORBIFLY Décembre 2007 - Disclaimer

ORBIFLY MET'MAP TEAM :

Programmation & Développement : Alexandra Zaïnal
Conception & Développement : Baudouin d'Aumeries
Co-Programmation & Développement : Marc-Olivier Méhu
Soutien technique & logistique : Manuel Goepfert

Contact : metmap@orbifly.com




SOURCES & CREDITS :

   NOAA       Earth
Advisory